Time;durP1;ratioP1;P1;durP2;ratioP2;P2;SDS_P1;SDS_P2;PMS_P1;PMS_P2;Temp;Humidity;BMP_temperature;BMP_pressure;BME280_temperature;BME280_humidity;BME280_pressure;Samples;Min_cycle;Max_cycle;Signal;HPM_P1;HPM_P2
2022/03/31 00:00:49;;;;;;;35.50;24.12;;;;;;;2.24;79.15;99023.19;2090187;84;30879;-64
2022/03/31 00:03:51;;;;;;;35.28;25.92;;;;;;;2.23;78.98;99016.17;2057838;84;27638;-62
2022/03/31 00:06:53;;;;;;;34.90;26.25;;;;;;;2.22;78.96;99013.59;2097654;84;28832;-64
2022/03/31 00:09:56;;;;;;;34.75;26.33;;;;;;;2.25;78.89;99017.42;2073406;84;32070;-65
2022/03/31 00:13:00;;;;;;;39.13;27.87;;;;;;;2.24;78.91;99013.05;2055870;86;34220;-65
2022/03/31 00:16:02;;;;;;;37.53;26.62;;;;;;;2.25;78.85;99013.46;2061434;84;30268;-65
2022/03/31 00:19:04;;;;;;;38.58;28.17;;;;;;;2.26;78.89;99012.10;2132905;83;27649;-63
2022/03/31 00:22:18;;;;;;;33.35;26.45;;;;;;;2.29;78.86;99016.41;2133959;83;29516;-66
2022/03/31 00:25:20;;;;;;;36.45;26.48;;;;;;;2.32;78.84;99017.62;2133791;83;30792;-66
2022/03/31 00:28:23;;;;;;;35.10;26.23;;;;;;;2.32;78.99;99011.48;2072233;83;34228;-65
2022/03/31 00:31:25;;;;;;;34.23;26.30;;;;;;;2.33;78.92;99007.45;2064141;86;30610;-65
2022/03/31 00:34:28;;;;;;;34.13;26.02;;;;;;;2.35;78.78;99003.42;2064212;86;27671;-65
2022/03/31 00:37:30;;;;;;;34.20;24.85;;;;;;;2.32;78.93;99000.44;2083301;84;29534;-64
2022/03/31 00:40:32;;;;;;;30.05;23.92;;;;;;;2.31;78.86;98994.75;2097819;84;31466;-65
2022/03/31 00:43:34;;;;;;;31.93;23.62;;;;;;;2.30;78.78;98997.47;2100846;84;33785;-63
2022/03/31 00:46:51;;;;;;;35.00;24.77;;;;;;;2.29;78.86;99004.52;2100295;84;30825;-64
2022/03/31 00:49:53;;;;;;;33.95;25.17;;;;;;;2.26;78.95;99002.86;2099020;84;28318;-63
2022/03/31 00:52:55;;;;;;;37.25;26.02;;;;;;;2.24;79.03;99000.72;2098829;84;29285;-64
2022/03/31 00:56:00;;;;;;;39.95;27.93;;;;;;;2.27;79.08;99004.58;2100650;84;31047;-65
2022/03/31 00:59:06;;;;;;;39.97;27.63;;;;;;;2.30;79.25;98994.34;2099863;84;33771;-64
2022/03/31 01:02:08;;;;;;;35.48;27.62;;;;;;;2.33;79.03;98996.00;2100489;84;29700;-63
2022/03/31 01:05:14;;;;;;;41.98;27.77;;;;;;;2.34;79.18;98999.05;2100754;84;27609;-65
2022/03/31 01:08:15;;;;;;;36.55;26.87;;;;;;;2.32;78.97;98999.59;2094663;85;28629;-63
2022/03/31 01:11:19;;;;;;;39.88;28.38;;;;;;;2.29;79.02;99004.52;2091519;85;31425;-63
2022/03/31 01:14:21;;;;;;;33.95;25.23;;;;;;;2.28;78.91;98998.83;2098619;84;33764;-64
2022/03/31 01:17:22;;;;;;;35.78;26.23;;;;;;;2.28;79.08;98994.42;2088171;84;29835;-63
2022/03/31 01:20:25;;;;;;;37.10;26.97;;;;;;;2.26;79.15;98993.61;2069601;86;27595;-63
2022/03/31 01:23:28;;;;;;;42.08;29.82;;;;;;;2.22;79.11;98991.98;2069447;85;28673;-64
2022/03/31 01:26:30;;;;;;;40.03;26.23;;;;;;;2.23;79.05;98991.07;2097695;84;31842;-63
2022/03/31 01:29:32;;;;;;;36.53;26.70;;;;;;;2.24;79.18;98995.44;2059179;85;33486;-65
2022/03/31 01:32:34;;;;;;;38.58;26.40;;;;;;;2.22;79.17;98986.70;2101250;84;30785;-64
2022/03/31 01:35:36;;;;;;;39.00;24.25;;;;;;;2.21;79.23;98983.66;2055880;85;28318;-64
2022/03/31 01:38:38;;;;;;;40.28;26.07;;;;;;;2.20;79.33;98989.02;2031183;87;29108;-64
2022/03/31 01:41:40;;;;;;;39.55;26.82;;;;;;;2.19;79.15;98997.85;2029953;87;32222;-64
2022/03/31 01:44:42;;;;;;;37.88;26.73;;;;;;;2.19;79.37;98990.77;2044604;87;32988;-66
2022/03/31 01:47:44;;;;;;;44.70;27.58;;;;;;;2.23;79.28;98990.22;2045115;87;30320;-64
2022/03/31 01:50:47;;;;;;;34.13;24.82;;;;;;;2.23;79.29;98982.30;2101089;84;27665;-65
2022/03/31 01:53:49;;;;;;;37.75;24.90;;;;;;;2.23;79.30;98981.83;2096355;84;29485;-66
2022/03/31 01:56:52;;;;;;;32.35;24.70;;;;;;;2.23;79.30;98984.94;2101510;83;31949;-64
2022/03/31 01:59:54;;;;;;;33.15;24.25;;;;;;;2.22;79.44;98989.34;2128177;83;33024;-64
2022/03/31 02:02:57;;;;;;;45.78;27.45;;;;;;;2.23;79.48;98994.19;2102124;83;29027;-64
2022/03/31 02:05:59;;;;;;;37.23;26.42;;;;;;;2.24;79.34;99000.72;2101304;84;27675;-63
2022/03/31 02:09:01;;;;;;;35.58;25.88;;;;;;;2.25;79.42;98989.23;2074324;85;29863;-63
2022/03/31 02:12:04;;;;;;;41.05;28.80;;;;;;;2.28;79.62;98989.13;2051402;85;32308;-63
2022/03/31 02:15:07;;;;;;;38.23;25.85;;;;;;;2.32;79.46;98994.31;2038938;86;33738;-63
2022/03/31 02:18:10;;;;;;;43.35;27.05;;;;;;;2.33;79.39;98992.04;2033730;87;30481;-65
2022/03/31 02:21:12;;;;;;;39.80;25.68;;;;;;;2.33;79.41;98992.92;2075113;84;27732;-63
2022/03/31 02:24:14;;;;;;;46.02;28.38;;;;;;;2.36;79.34;98998.54;2098492;84;29950;-64
2022/03/31 02:27:16;;;;;;;45.23;30.72;;;;;;;2.38;79.52;98996.70;2060553;84;31941;-66
2022/03/31 02:30:18;;;;;;;43.30;26.75;;;;;;;2.37;79.18;98998.94;2090458;84;33823;-64
2022/03/31 02:33:20;;;;;;;39.73;26.80;;;;;;;2.35;79.44;98995.48;2082242;84;29567;-66
2022/03/31 02:36:23;;;;;;;44.40;27.20;;;;;;;2.31;79.40;98996.55;2055467;86;28377;-63
2022/03/31 02:39:24;;;;;;;41.65;28.05;;;;;;;2.28;79.44;98998.83;2080882;84;28774;-64
2022/03/31 02:42:26;;;;;;;35.88;26.27;;;;;;;2.28;79.40;99001.47;2098472;84;31040;-63
2022/03/31 02:45:28;;;;;;;41.30;28.77;;;;;;;2.29;79.46;98996.59;2097137;84;34124;-63
2022/03/31 02:48:30;;;;;;;49.13;27.17;;;;;;;2.27;79.35;98995.33;2097478;84;30783;-65
2022/03/31 02:51:32;;;;;;;39.73;28.00;;;;;;;2.27;79.43;98991.37;2097459;84;27703;-64
2022/03/31 02:57:57;;;;;;;38.67;24.95;;;;;;;2.24;79.42;98992.80;2085240;84;31005;-62
2022/03/31 03:00:58;;;;;;;35.50;24.80;;;;;;;2.26;79.59;98990.09;2099405;84;33132;-63
2022/03/31 03:04:01;;;;;;;43.02;26.73;;;;;;;2.26;79.45;98994.05;2099812;84;30810;-64
2022/03/31 03:07:04;;;;;;;38.78;26.57;;;;;;;2.25;79.44;98986.59;2100291;84;27747;-61
2022/03/31 03:10:06;;;;;;;39.03;26.57;;;;;;;2.28;79.52;98985.17;2098172;84;28661;-62
2022/03/31 03:13:09;;;;;;;35.88;26.12;;;;;;;2.32;79.49;98983.73;2098457;84;32190;-67
2022/03/31 03:16:12;;;;;;;40.25;26.35;;;;;;;2.32;79.71;98985.06;2099958;84;33488;-61
2022/03/31 03:19:13;;;;;;;37.53;26.23;;;;;;;2.31;79.31;98976.73;2100151;84;30762;-61
2022/03/31 03:22:15;;;;;;;37.10;25.17;;;;;;;2.34;79.51;98981.43;2076751;84;27708;-64
2022/03/31 03:25:19;;;;;;;39.00;24.05;;;;;;;2.37;79.53;98985.28;2100328;84;28570;-62
2022/03/31 03:28:21;;;;;;;35.78;23.95;;;;;;;2.38;79.47;98984.38;2100205;84;32251;-66
2022/03/31 03:31:23;;;;;;;29.57;21.15;;;;;;;2.39;79.34;98987.41;2097148;84;34201;-63
2022/03/31 03:34:25;;;;;;;37.20;22.85;;;;;;;2.37;79.24;98984.41;2099892;84;29417;-66
2022/03/31 03:37:27;;;;;;;31.82;22.93;;;;;;;2.35;79.08;98987.56;2103234;83;27670;-70
2022/03/31 03:40:31;;;;;;;33.45;23.32;;;;;;;2.30;79.05;98987.74;2101066;84;29068;-63
2022/03/31 03:43:32;;;;;;;31.68;22.82;;;;;;;2.26;79.06;98988.77;2094659;84;31229;-65
2022/03/31 03:46:34;;;;;;;33.28;23.25;;;;;;;2.20;79.10;98989.86;2100202;84;34181;-62
2022/03/31 03:49:36;;;;;;;33.23;24.07;;;;;;;2.18;79.12;98995.66;2068184;84;29651;-62
2022/03/31 03:52:39;;;;;;;39.67;26.60;;;;;;;2.19;79.30;98987.28;2064154;86;27553;-62
2022/03/31 03:55:42;;;;;;;43.90;27.75;;;;;;;2.16;79.32;98982.11;2063616;86;28149;-63
2022/03/31 03:58:44;;;;;;;38.10;25.75;;;;;;;2.10;79.32;98988.00;2084052;84;31908;-63
2022/03/31 04:01:46;;;;;;;37.55;26.35;;;;;;;2.06;79.19;98989.50;2100404;84;33023;-67
2022/03/31 04:04:48;;;;;;;45.48;29.77;;;;;;;2.02;79.09;98992.72;2100007;84;29921;-69
2022/03/31 04:07:49;;;;;;;49.23;30.43;;;;;;;1.97;79.19;98988.93;2098230;84;27733;-63
2022/03/31 04:10:51;;;;;;;40.23;25.82;;;;;;;1.93;79.18;98984.66;2100009;84;29026;-64
2022/03/31 04:13:53;;;;;;;44.38;29.18;;;;;;;1.91;79.23;98982.97;2099314;84;31909;-64
2022/03/31 04:16:55;;;;;;;41.25;26.77;;;;;;;1.90;79.39;98987.41;2099414;84;34458;-70
2022/03/31 04:19:57;;;;;;;39.73;26.35;;;;;;;1.91;79.42;98995.73;2064256;84;30762;-70
2022/03/31 04:22:59;;;;;;;41.45;24.27;;;;;;;1.89;79.29;99000.68;2052598;86;27633;-62
2022/03/31 04:26:01;;;;;;;37.13;25.02;;;;;;;1.86;79.34;98996.34;2053070;85;29890;-62
2022/03/31 04:29:03;;;;;;;43.73;29.42;;;;;;;1.83;79.30;98996.45;2029280;87;32213;-63
2022/03/31 04:32:06;;;;;;;48.68;31.45;;;;;;;1.82;79.36;98996.08;2053389;86;34190;-63
2022/03/31 04:35:10;;;;;;;35.30;24.95;;;;;;;1.78;79.24;99001.89;2002118;87;30844;-63
2022/03/31 04:38:13;;;;;;;34.20;24.98;;;;;;;1.75;79.16;99008.59;1996380;89;27714;-65
2022/03/31 04:41:15;;;;;;;41.95;26.20;;;;;;;1.74;79.27;99010.83;1996138;88;28873;-69
2022/03/31 04:44:17;;;;;;;45.45;28.75;;;;;;;1.75;79.62;99020.95;1996652;87;31019;-66
2022/03/31 04:47:20;;;;;;;35.58;25.75;;;;;;;1.75;79.41;99016.98;1996111;88;34223;-62
2022/03/31 04:50:21;;;;;;;35.30;25.40;;;;;;;1.76;79.38;99020.04;1996143;88;30956;-63
2022/03/31 04:53:24;;;;;;;34.73;24.90;;;;;;;1.75;79.35;99021.80;2002815;87;27686;-63
2022/03/31 04:56:26;;;;;;;35.30;25.70;;;;;;;1.77;79.43;99021.30;2029942;87;29542;-64
2022/03/31 04:59:28;;;;;;;36.13;25.45;;;;;;;1.75;79.33;99016.98;2030350;87;31467;-67
2022/03/31 05:02:30;;;;;;;39.83;26.90;;;;;;;1.74;79.33;99018.75;2030171;87;34115;-62
2022/03/31 05:05:32;;;;;;;38.63;27.77;;;;;;;1.77;79.41;99030.53;2044707;86;29929;-63
2022/03/31 05:08:36;;;;;;;36.85;27.17;;;;;;;1.77;79.36;99023.94;2064071;85;27592;-63
2022/03/31 05:11:37;;;;;;;40.48;28.95;;;;;;;1.73;79.28;99023.66;2056464;85;28715;-63
2022/03/31 05:14:39;;;;;;;37.23;27.02;;;;;;;1.73;79.39;99024.98;2020414;86;30954;-67
2022/03/31 05:17:41;;;;;;;37.50;27.13;;;;;;;1.74;79.52;99024.50;1993603;89;33061;-65
2022/03/31 05:20:43;;;;;;;43.65;29.20;;;;;;;1.75;79.45;99027.08;2042913;85;30093;-66
2022/03/31 05:23:45;;;;;;;42.08;28.67;;;;;;;1.73;79.25;99027.62;2040221;87;27591;-66
2022/03/31 05:26:48;;;;;;;37.00;26.37;;;;;;;1.69;79.44;99037.87;2093113;84;30011;-68
2022/03/31 05:29:50;;;;;;;42.80;27.45;;;;;;;1.62;79.27;99042.49;2097511;84;32200;-67
2022/03/31 05:32:53;;;;;;;47.62;32.60;;;;;;;1.60;79.30;99044.75;2063358;85;33298;-68
2022/03/31 05:35:55;;;;;;;48.95;30.70;;;;;;;1.58;79.57;99041.30;2036667;87;29395;-62
2022/03/31 05:38:57;;;;;;;42.45;28.95;;;;;;;1.59;79.59;99038.63;2126655;83;27617;-66
2022/03/31 05:41:59;;;;;;;35.38;26.17;;;;;;;1.58;79.35;99042.18;2127860;83;29082;-66
2022/03/31 05:45:02;;;;;;;58.92;39.90;;;;;;;1.56;79.47;99040.05;2119092;83;32246;-63
2022/03/31 05:48:04;;;;;;;39.27;27.15;;;;;;;1.55;79.42;99042.28;2074533;85;33447;-63
2022/03/31 05:51:07;;;;;;;45.43;29.07;;;;;;;1.57;79.47;99044.88;2069083;85;30010;-66
2022/03/31 05:54:09;;;;;;;42.38;29.80;;;;;;;1.57;79.58;99043.09;2042832;87;27991;-65
2022/03/31 05:57:11;;;;;;;46.28;28.60;;;;;;;1.59;79.52;99037.75;2100065;84;29547;-68
2022/03/31 06:00:17;;;;;;;42.93;29.30;;;;;;;1.58;79.44;99038.66;2073125;85;32200;-68
2022/03/31 06:03:22;;;;;;;53.40;35.20;;;;;;;1.55;79.40;99044.07;2040663;87;32983;-67
2022/03/31 06:06:24;;;;;;;40.80;28.97;;;;;;;1.51;79.29;99038.89;2040026;86;30717;-65
2022/03/31 06:09:27;;;;;;;51.20;31.60;;;;;;;1.52;79.50;99039.73;2040679;86;27753;-64
2022/03/31 06:12:28;;;;;;;45.43;29.57;;;;;;;1.47;79.55;99039.89;2059767;85;29503;-65
2022/03/31 06:15:31;;;;;;;45.50;29.98;;;;;;;1.46;79.35;99046.08;2038719;87;32291;-64
2022/03/31 06:18:33;;;;;;;45.67;28.70;;;;;;;1.43;79.40;99042.22;2067894;84;34425;-63
2022/03/31 06:21:36;;;;;;;39.23;27.80;;;;;;;1.43;79.58;99048.81;2041152;87;30883;-63
2022/03/31 06:24:39;;;;;;;43.40;29.15;;;;;;;1.43;79.46;99054.56;2105971;83;27720;-63
2022/03/31 06:27:44;;;;;;;40.05;27.85;;;;;;;1.39;79.02;99058.20;2128275;83;28647;-63
2022/03/31 06:30:49;;;;;;;36.80;27.05;;;;;;;1.36;79.24;99054.75;2104241;83;34855;-63
2022/03/31 06:33:53;;;;;;;40.98;27.00;;;;;;;1.39;79.35;99064.80;2056892;85;33934;-62
2022/03/31 06:36:55;;;;;;;39.92;26.45;;;;;;;1.35;79.07;99062.25;2030124;87;29648;-63
2022/03/31 06:39:57;;;;;;;34.73;23.98;;;;;;;1.31;79.16;99067.25;2010141;88;27627;-62
2022/03/31 06:43:00;;;;;;;32.50;23.62;;;;;;;1.28;79.05;99063.82;2069615;84;29539;-66
2022/03/31 06:46:02;;;;;;;36.93;25.40;;;;;;;1.26;79.11;99060.36;2095776;84;30854;-65
2022/03/31 06:49:05;;;;;;;41.55;26.87;;;;;;;1.27;78.94;99059.45;2070560;85;33208;-67
2022/03/31 06:52:07;;;;;;;37.65;23.77;;;;;;;1.30;79.23;99058.05;2061290;85;30050;-69
2022/03/31 06:55:09;;;;;;;40.90;27.62;;;;;;;1.33;79.01;99062.76;2063385;85;28216;-68
2022/03/31 06:58:11;;;;;;;53.35;33.28;;;;;;;1.36;78.97;99060.50;2070653;85;29607;-63
2022/03/31 07:01:14;;;;;;;38.55;24.87;;;;;;;1.42;78.85;99064.23;2068804;85;31030;-62
2022/03/31 07:04:16;;;;;;;36.88;23.20;;;;;;;1.44;78.83;99066.38;2070097;85;33309;-62
2022/03/31 07:07:19;;;;;;;40.48;25.60;;;;;;;1.46;78.67;99061.91;2074318;85;30070;-64
2022/03/31 07:10:21;;;;;;;33.78;24.15;;;;;;;1.50;78.71;99058.27;2074575;85;28307;-68
2022/03/31 07:13:23;;;;;;;32.98;22.52;;;;;;;1.57;78.81;99058.93;2072108;85;29895;-63
2022/03/31 07:16:25;;;;;;;33.50;24.72;;;;;;;1.60;78.70;99061.47;2073422;85;31046;-62
2022/03/31 07:19:28;;;;;;;62.15;37.13;;;;;;;1.63;78.55;99067.09;2069348;84;34130;-63
2022/03/31 07:22:30;;;;;;;57.13;31.45;;;;;;;1.63;78.42;99064.45;2055849;86;29661;-63
2022/03/31 07:25:33;;;;;;;39.25;25.27;;;;;;;1.63;78.38;99056.10;2069830;85;27687;-65
2022/03/31 07:28:35;;;;;;;96.78;39.58;;;;;;;1.67;78.49;99056.85;2080756;85;28935;-77
2022/03/31 07:31:37;;;;;;;72.50;38.20;;;;;;;1.70;78.18;99038.72;2056422;86;32216;-64
2022/03/31 07:34:39;;;;;;;49.33;27.42;;;;;;;1.72;78.19;99039.09;2056275;86;33539;-74
2022/03/31 07:37:41;;;;;;;48.98;28.70;;;;;;;1.78;78.35;99048.58;2056622;85;29672;-73
2022/03/31 07:40:44;;;;;;;85.83;40.58;;;;;;;1.80;78.20;99052.88;2056706;86;27708;-71
2022/03/31 07:43:46;;;;;;;77.80;37.13;;;;;;;1.84;78.11;99052.78;2056152;86;29946;-65
2022/03/31 07:46:51;;;;;;;58.92;31.33;;;;;;;1.90;78.26;99056.55;2051734;85;32231;-75
2022/03/31 07:49:52;;;;;;;136.32;45.28;;;;;;;1.99;78.28;99056.22;2029771;87;34207;-64
2022/03/31 07:52:55;;;;;;;160.37;57.58;;;;;;;2.06;78.00;99058.18;2053227;86;30791;-71
2022/03/31 07:55:57;;;;;;;45.65;27.20;;;;;;;2.11;78.07;99057.57;2018654;88;27639;-64
2022/03/31 07:59:00;;;;;;;101.00;44.48;;;;;;;2.18;77.92;99062.17;2052741;86;29883;-73
2022/03/31 08:02:03;;;;;;;75.72;32.95;;;;;;;2.22;77.77;99057.20;2018472;87;32280;-63
2022/03/31 08:05:06;;;;;;;44.00;25.77;;;;;;;2.27;77.25;99057.88;2006948;87;34155;-64
2022/03/31 08:08:08;;;;;;;62.83;29.72;;;;;;;2.25;77.15;99062.34;2029293;87;30431;-73
2022/03/31 08:11:10;;;;;;;99.97;41.18;;;;;;;2.23;77.11;99070.34;2030059;87;27789;-74
2022/03/31 08:14:12;;;;;;;77.12;34.27;;;;;;;2.22;77.17;99067.30;2029999;87;30330;-65
2022/03/31 08:17:14;;;;;;;79.87;35.95;;;;;;;2.23;76.78;99070.81;2017302;87;31199;-65
2022/03/31 08:20:17;;;;;;;83.75;32.05;;;;;;;2.26;77.21;99065.39;1998439;87;33514;-65
2022/03/31 08:23:19;;;;;;;141.43;44.53;;;;;;;2.28;76.50;99071.05;2029820;87;29701;-70
2022/03/31 08:26:22;;;;;;;38.65;25.12;;;;;;;2.29;76.96;99066.61;2014280;87;27716;-65
2022/03/31 08:29:28;;;;;;;58.68;28.92;;;;;;;2.34;76.87;99070.41;2045168;86;28500;-65
2022/03/31 08:32:34;;;;;;;62.48;30.25;;;;;;;2.38;76.85;99075.99;2086560;85;32223;-64
2022/03/31 08:35:34;;;;;;;42.85;24.45;;;;;;;2.40;76.67;99078.13;2060520;85;34202;-71
2022/03/31 08:38:36;;;;;;;42.20;23.35;;;;;;;2.45;76.60;99091.17;2060645;85;31012;-63
2022/03/31 08:41:39;;;;;;;80.75;33.83;;;;;;;2.45;76.52;99080.16;2058808;86;27690;-64
2022/03/31 08:44:42;;;;;;;107.65;59.25;;;;;;;2.51;76.90;99079.06;2055851;86;29872;-64
2022/03/31 08:47:46;;;;;;;72.30;38.15;;;;;;;2.54;76.42;99081.13;2055972;86;31906;-65
2022/03/31 08:50:48;;;;;;;64.92;29.92;;;;;;;2.60;76.79;99080.03;2061052;86;33791;-71
2022/03/31 08:53:51;;;;;;;66.77;31.75;;;;;;;2.63;76.13;99069.83;2036362;85;30806;-64
2022/03/31 08:56:54;;;;;;;41.80;26.95;;;;;;;2.61;76.23;99066.38;2036183;86;28316;-70
2022/03/31 08:59:56;;;;;;;57.70;30.32;;;;;;;2.66;76.12;99065.72;2061831;85;28839;-63
2022/03/31 09:03:01;;;;;;;61.28;31.07;;;;;;;2.67;76.12;99067.45;2088573;85;32313;-63
2022/03/31 09:06:08;;;;;;;54.90;30.08;;;;;;;2.71;76.36;99071.27;2071200;85;33153;-69
2022/03/31 09:09:12;;;;;;;67.40;36.30;;;;;;;2.81;76.30;99070.91;2060777;85;29732;-70
2022/03/31 09:12:14;;;;;;;42.88;28.75;;;;;;;2.87;76.34;99067.56;2061236;85;27636;-69
2022/03/31 09:15:16;;;;;;;58.08;31.55;;;;;;;2.97;75.83;99068.08;2056121;86;28534;-64
2022/03/31 09:18:20;;;;;;;56.18;32.42;;;;;;;3.03;75.46;99066.98;2059898;86;32270;-65
2022/03/31 09:21:23;;;;;;;62.78;31.90;;;;;;;3.11;75.55;99078.59;2086724;84;33770;-64
2022/03/31 09:24:28;;;;;;;35.28;24.77;;;;;;;3.18;75.12;99080.93;2095757;84;29685;-64
2022/03/31 09:27:30;;;;;;;;;;;;;;;3.25;75.35;99083.35;2058643;86;27701;-64
2022/03/31 09:30:32;;;;;;;35.03;23.65;;;;;;;3.32;74.25;99090.98;2082672;83;29474;-65
2022/03/31 09:33:42;;;;;;;47.10;29.07;;;;;;;3.27;74.54;99081.52;2081939;84;31798;-68
2022/03/31 09:36:50;;;;;;;42.88;27.52;;;;;;;3.25;74.11;99084.20;2099843;84;32959;-63
2022/03/31 09:39:55;;;;;;;64.07;39.88;;;;;;;3.31;74.85;99080.48;2098107;84;29806;-64
2022/03/31 09:42:59;;;;;;;59.67;37.38;;;;;;;3.42;75.09;99077.38;2075547;84;28146;-69
2022/03/31 09:46:01;;;;;;;41.55;27.67;;;;;;;3.50;74.64;99072.17;2087367;84;28875;-64
2022/03/31 09:49:22;;;;;;;38.48;26.20;;;;;;;3.53;74.00;99079.59;2100250;84;32203;-64
2022/03/31 09:52:24;;;;;;;39.20;25.72;;;;;;;3.58;74.35;99068.36;2093688;84;33628;-68
2022/03/31 09:55:26;;;;;;;46.30;30.40;;;;;;;3.71;74.30;99062.11;2100525;84;30409;-70
2022/03/31 09:58:28;;;;;;;48.63;31.70;;;;;;;3.87;74.28;99066.28;2100385;84;27688;-70
2022/03/31 10:01:31;;;;;;;41.50;26.65;;;;;;;3.99;73.41;99059.12;2095468;84;29892;-64
2022/03/31 10:04:34;;;;;;;61.55;36.35;;;;;;;4.15;73.88;99061.13;2064095;86;31094;-71
2022/03/31 10:07:36;;;;;;;51.25;31.73;;;;;;;4.25;73.15;99056.68;2063984;86;34239;-64
2022/03/31 10:10:39;;;;;;;56.92;35.20;;;;;;;4.28;72.27;99054.83;2094533;84;30983;-64
2022/03/31 10:14:04;;;;;;;59.08;35.28;;;;;;;4.34;72.29;99054.09;2098835;84;27758;-64
2022/03/31 10:17:08;;;;;;;42.38;23.35;;;;;;;4.43;72.51;99055.95;2072820;85;30026;-64
2022/03/31 10:20:13;;;;;;;52.90;31.05;;;;;;;4.50;72.08;99052.95;2073665;85;31768;-64
2022/03/31 10:26:40;;;;;;;51.25;29.80;;;;;;;4.74;71.49;99053.23;2032149;86;29912;-64
2022/03/31 10:29:45;;;;;;;60.48;35.40;;;;;;;4.85;71.43;99044.30;2055827;86;28548;-64
2022/03/31 10:33:07;;;;;;;42.35;24.47;;;;;;;4.90;71.33;99042.31;2055717;86;29387;-69
2022/03/31 10:36:14;;;;;;;38.95;25.10;;;;;;;4.93;70.98;99047.93;2055770;86;32020;-65
2022/03/31 10:39:23;;;;;;;30.43;21.60;;;;;;;4.86;71.08;99041.59;2055548;86;34019;-68
2022/03/31 10:42:25;;;;;;;33.05;23.22;;;;;;;4.86;70.79;99034.97;2055246;86;30368;-64
2022/03/31 10:45:40;;;;;;;31.90;21.75;;;;;;;4.86;70.85;99028.33;2055417;86;27738;-68
2022/03/31 10:48:51;;;;;;;35.92;23.55;;;;;;;4.88;71.07;99026.92;2055737;86;29733;-65
2022/03/31 10:51:54;;;;;;;38.45;21.80;;;;;;;4.89;70.39;99027.77;2055921;86;31043;-65
2022/03/31 10:55:19;;;;;;;30.97;21.97;;;;;;;4.90;70.64;99025.51;2083553;85;33021;-68
2022/03/31 10:58:26;;;;;;;40.55;25.65;;;;;;;4.92;70.74;99020.99;2039711;86;30015;-67
2022/03/31 11:01:31;;;;;;;33.88;22.52;;;;;;;4.89;69.73;99022.01;2032290;87;27725;-64
2022/03/31 11:04:46;;;;;;;31.55;23.05;;;;;;;4.82;70.03;99011.27;2032048;87;28804;-64
2022/03/31 11:07:48;;;;;;;33.67;23.57;;;;;;;4.83;70.50;99009.02;2053647;86;31099;-70
2022/03/31 11:10:53;;;;;;;33.15;21.90;;;;;;;4.91;70.58;99007.33;2047650;86;34223;-69
2022/03/31 11:13:57;;;;;;;36.42;24.18;;;;;;;4.92;70.05;99008.60;2047943;86;30509;-70
2022/03/31 11:17:00;;;;;;;42.95;26.82;;;;;;;4.91;70.22;99003.34;2048177;86;27748;-68
2022/03/31 11:20:16;;;;;;;37.75;24.52;;;;;;;4.95;70.14;99004.93;2048362;86;29573;-64
2022/03/31 11:23:19;;;;;;;35.65;24.05;;;;;;;4.97;70.07;99007.89;2005274;88;31475;-71
2022/03/31 11:26:32;;;;;;;37.88;26.27;;;;;;;4.97;69.65;99011.88;2064410;85;33867;-73
2022/03/31 11:29:34;;;;;;;43.50;27.98;;;;;;;4.98;69.36;99002.14;2071722;85;29797;-73
2022/03/31 11:32:37;;;;;;;46.68;29.37;;;;;;;4.99;69.78;98999.88;2038349;87;27721;-72
2022/03/31 11:35:40;;;;;;;40.80;27.15;;;;;;;5.12;69.96;98997.02;2073879;85;29958;-71
2022/03/31 11:38:43;;;;;;;37.90;26.42;;;;;;;5.27;69.72;98990.13;2071627;84;32253;-64
2022/03/31 11:41:45;;;;;;;44.20;28.05;;;;;;;5.42;68.66;98983.17;2041692;86;34278;-64
2022/03/31 11:44:47;;;;;;;36.33;26.87;;;;;;;5.59;68.89;98994.75;2062696;86;30850;-65
2022/03/31 11:48:09;;;;;;;32.15;25.25;;;;;;;5.68;68.21;98998.29;2068862;84;27695;-78
2022/03/31 11:51:13;;;;;;;32.65;25.08;;;;;;;5.69;68.35;98984.06;2007272;88;29972;-64
2022/03/31 11:54:15;;;;;;;40.78;27.35;;;;;;;5.80;68.06;98993.28;2078794;84;31882;-79
2022/03/31 11:57:17;;;;;;;38.78;25.85;;;;;;;5.79;68.64;98992.43;2087640;84;33849;-71
2022/03/31 12:00:22;;;;;;;33.38;26.20;;;;;;;5.83;68.45;98994.45;2097628;84;30799;-65
2022/03/31 12:03:38;;;;;;;40.10;26.10;;;;;;;5.82;67.38;99000.22;2098299;84;27928;-78
2022/03/31 12:06:42;;;;;;;35.88;25.08;;;;;;;5.71;67.66;98992.80;2066968;84;28740;-65
2022/03/31 12:09:43;;;;;;;35.13;24.85;;;;;;;5.59;67.62;98991.64;2065853;84;30247;-69
2022/03/31 12:12:49;;;;;;;34.50;22.75;;;;;;;5.52;67.37;98984.91;2097630;84;34177;-65
2022/03/31 12:16:07;;;;;;;35.60;23.18;;;;;;;5.38;66.56;98988.23;2097144;84;29645;-77
2022/03/31 12:19:09;;;;;;;33.90;22.77;;;;;;;5.25;67.56;98986.67;2029448;87;27682;-66
2022/03/31 12:22:11;;;;;;;28.83;21.85;;;;;;;5.23;67.91;98993.85;2065641;84;27871;-65
2022/03/31 12:25:13;;;;;;;28.47;21.60;;;;;;;5.21;67.94;98981.59;2074306;85;32296;-74
2022/03/31 12:28:17;;;;;;;31.93;23.18;;;;;;;5.20;68.19;98987.36;2074671;85;33393;-64
2022/03/31 12:31:31;;;;;;;29.75;22.02;;;;;;;5.14;67.21;98972.59;2074349;85;29660;-73
2022/03/31 12:34:31;;;;;;;33.45;22.90;;;;;;;5.12;67.98;98971.80;2069482;85;27736;-65
2022/03/31 12:37:36;;;;;;;35.30;24.35;;;;;;;5.12;67.93;98968.30;2029954;87;29075;-73
2022/03/31 12:40:42;;;;;;;;;;;;;;;5.13;68.46;98965.56;2013042;88;31122;-65
2022/03/31 12:44:04;;;;;;;37.50;24.12;;;;;;;5.13;67.19;98967.38;2010551;88;34048;-68
2022/03/31 12:47:09;;;;;;;34.58;23.83;;;;;;;5.06;67.95;98964.13;2017611;87;30033;-64
2022/03/31 12:50:26;;;;;;;34.80;23.62;;;;;;;5.07;68.07;98955.23;2101323;84;27623;-64
2022/03/31 12:53:41;;;;;;;32.83;22.50;;;;;;;5.06;67.99;98961.95;2074632;85;29582;-68
2022/03/31 12:56:48;;;;;;;32.05;23.55;;;;;;;4.97;67.33;98960.12;2074301;85;31082;-73
2022/03/31 13:00:12;;;;;;;39.00;24.70;;;;;;;4.92;68.01;98959.95;2074524;85;33688;-67
2022/03/31 13:03:14;;;;;;;34.65;23.20;;;;;;;4.91;67.97;98966.20;2040842;86;30428;-68
2022/03/31 13:06:17;;;;;;;50.43;31.90;;;;;;;4.85;67.94;98966.03;2064529;85;27692;-65
2022/03/31 13:09:20;;;;;;;45.92;32.15;;;;;;;4.81;68.23;98949.85;2044325;85;29823;-70
2022/03/31 13:12:21;;;;;;;40.20;26.70;;;;;;;4.82;68.64;98951.58;2038903;87;31426;-68
2022/03/31 13:15:24;;;;;;;35.00;24.40;;;;;;;4.83;68.60;98951.52;2038928;86;33369;-72
2022/03/31 13:18:26;;;;;;;40.92;29.77;;;;;;;4.83;68.58;98948.87;2053010;85;30840;-73
2022/03/31 13:21:29;;;;;;;38.85;25.80;;;;;;;4.83;68.69;98950.64;2071491;84;27815;-71
2022/03/31 13:24:31;;;;;;;49.98;33.60;;;;;;;4.79;68.64;98945.96;2039667;87;28903;-65
2022/03/31 13:27:35;;;;;;;40.55;28.65;;;;;;;4.79;68.76;98945.96;2065167;86;31057;-72
2022/03/31 13:30:37;;;;;;;70.62;46.85;;;;;;;4.80;68.56;98940.20;2095147;84;32473;-71
2022/03/31 13:33:41;;;;;;;38.85;27.25;;;;;;;4.77;68.60;98938.53;2088357;84;30797;-66
2022/03/31 13:36:43;;;;;;;42.88;30.32;;;;;;;4.80;68.69;98937.55;2074626;85;27650;-65
2022/03/31 13:39:47;;;;;;;43.33;30.55;;;;;;;4.81;68.89;98935.27;2074322;85;29369;-66
2022/03/31 13:42:49;;;;;;;39.25;28.05;;;;;;;4.84;69.09;98925.83;2069564;85;31094;-70
2022/03/31 13:45:52;;;;;;;44.40;29.42;;;;;;;4.87;69.06;98929.67;2069088;85;32961;-66
2022/03/31 13:48:54;;;;;;;42.05;27.80;;;;;;;4.88;68.66;98919.94;2064993;85;30575;-65
2022/03/31 13:51:56;;;;;;;37.45;26.23;;;;;;;4.84;68.67;98921.85;2038728;86;27729;-69
2022/03/31 13:54:58;;;;;;;44.08;29.12;;;;;;;4.83;68.64;98912.17;2031450;87;29946;-74
2022/03/31 14:01:22;;;;;;;39.23;25.85;;;;;;;4.83;68.61;98911.72;2043973;87;34174;-67
2022/03/31 14:04:25;;;;;;;32.90;24.40;;;;;;;4.82;68.62;98908.67;2047834;85;29647;-67
2022/03/31 14:07:29;;;;;;;38.92;25.70;;;;;;;4.82;68.46;98909.13;2076449;85;27693;-66
2022/03/31 14:10:31;;;;;;;35.75;26.87;;;;;;;4.78;68.34;98912.41;2050979;85;28665;-74
2022/03/31 14:13:34;;;;;;;36.65;25.95;;;;;;;4.79;68.67;98914.61;2100732;84;31517;-66
2022/03/31 14:16:40;;;;;;;39.78;24.87;;;;;;;4.79;68.45;98906.64;2074497;85;33777;-75
2022/03/31 14:19:42;;;;;;;33.08;22.60;;;;;;;4.76;68.36;98904.98;2074243;85;31722;-75
2022/03/31 14:22:44;;;;;;;37.15;27.42;;;;;;;4.78;68.38;98899.13;2088351;84;27748;-71
2022/03/31 14:25:46;;;;;;;36.90;25.65;;;;;;;4.81;68.56;98895.46;2089645;84;28757;-65